Time;durP1;ratioP1;P1;durP2;ratioP2;P2;SDS_P1;SDS_P2;PMS_P1;PMS_P2;Temp;Humidity;BMP_temperature;BMP_pressure;BME280_temperature;BME280_humidity;BME280_pressure;Samples;Min_cycle;Max_cycle;Signal;HPM_P1;HPM_P2
2021/05/20 00:01:00;;;;;;;33.03;18.55;;;8.90;99.90;;;;;;5096261;28;20020;-71
2021/05/20 00:03:25;;;;;;;31.48;18.00;;;9.00;99.90;;;;;;5095952;28;20453;-70
2021/05/20 00:05:51;;;;;;;28.83;17.95;;;9.00;99.90;;;;;;5096177;28;20035;-70
2021/05/20 00:08:17;;;;;;;28.25;17.65;;;9.10;99.90;;;;;;5095812;28;20028;-71
2021/05/20 00:10:42;;;;;;;33.22;18.20;;;9.10;99.90;;;;;;5095023;28;20124;-71
2021/05/20 00:13:08;;;;;;;31.40;18.67;;;9.10;99.90;;;;;;5096009;28;20027;-71
2021/05/20 00:15:33;;;;;;;31.48;19.45;;;9.10;99.90;;;;;;5096019;28;20028;-71
2021/05/20 00:17:59;;;;;;;33.33;19.15;;;9.00;99.90;;;;;;5095863;28;20024;-71
2021/05/20 00:20:24;;;;;;;32.35;18.30;;;9.00;99.90;;;;;;5095868;28;20032;-71
2021/05/20 00:22:50;;;;;;;30.95;18.98;;;8.90;99.90;;;;;;5095663;28;20028;-70
2021/05/20 00:25:15;;;;;;;32.70;19.17;;;8.90;99.90;;;;;;5095995;28;20404;-70
2021/05/20 00:27:41;;;;;;;33.00;18.73;;;8.90;99.90;;;;;;5076955;28;20503;-70
2021/05/20 00:30:10;;;;;;;36.08;20.15;;;8.90;99.90;;;;;;5095659;28;20038;-70
2021/05/20 00:32:35;;;;;;;31.50;20.17;;;8.90;99.90;;;;;;5094171;28;20024;-71
2021/05/20 00:35:01;;;;;;;31.42;18.92;;;8.90;99.90;;;;;;5095630;28;20027;-70
2021/05/20 00:37:26;;;;;;;36.97;20.92;;;8.80;99.90;;;;;;5095487;28;20024;-70
2021/05/20 00:39:52;;;;;;;39.15;21.63;;;8.80;99.90;;;;;;5095001;28;20183;-70
2021/05/20 00:42:18;;;;;;;32.28;20.40;;;8.90;99.90;;;;;;5095306;28;20030;-71
2021/05/20 00:44:54;;;;;;;35.17;22.27;;;8.70;99.90;;;;;;5093991;28;20385;-70
2021/05/20 00:47:21;;;;;;;33.40;20.73;;;8.70;99.90;;;;;;5095048;28;20028;-70
2021/05/20 00:49:47;;;;;;;36.00;22.08;;;8.70;99.90;;;;;;5094563;28;20089;-70
2021/05/20 00:52:13;;;;;;;41.78;21.98;;;8.60;99.90;;;;;;5093601;28;20461;-70
2021/05/20 00:54:39;;;;;;;36.70;22.52;;;8.80;99.90;;;;;;5095219;28;20077;-70
2021/05/20 00:57:06;;;;;;;40.35;22.83;;;8.80;99.90;;;;;;5095108;28;20024;-70
2021/05/20 00:59:32;;;;;;;37.67;22.75;;;8.70;99.90;;;;;;5094576;28;20024;-70
2021/05/20 01:01:59;;;;;;;37.05;22.23;;;8.80;99.90;;;;;;5093314;28;20025;-71
2021/05/20 01:04:25;;;;;;;36.30;22.48;;;8.70;99.90;;;;;;5094755;28;20019;-71
2021/05/20 01:06:51;;;;;;;37.50;22.90;;;8.70;99.90;;;;;;5093501;28;20024;-71
2021/05/20 01:09:16;;;;;;;35.42;22.60;;;8.60;99.90;;;;;;5094889;28;20347;-70
2021/05/20 01:11:42;;;;;;;39.58;23.33;;;8.60;99.90;;;;;;5077059;28;20028;-70
2021/05/20 01:14:11;;;;;;;36.38;22.08;;;8.50;99.90;;;;;;5094864;28;20016;-71
2021/05/20 01:16:37;;;;;;;37.88;23.45;;;8.40;99.90;;;;;;5094588;28;20107;-70
2021/05/20 01:19:04;;;;;;;39.95;23.85;;;8.30;99.90;;;;;;5094268;28;20028;-70
2021/05/20 01:21:29;;;;;;;38.78;24.50;;;8.30;99.90;;;;;;5094772;28;20016;-71
2021/05/20 01:23:55;;;;;;;40.88;24.55;;;8.20;99.90;;;;;;5094540;28;20096;-70
2021/05/20 01:26:21;;;;;;;43.35;25.25;;;8.20;99.90;;;;;;5094312;28;20078;-70
2021/05/20 01:28:47;;;;;;;38.85;24.25;;;8.20;99.90;;;;;;5094620;28;20046;-70
2021/05/20 01:31:13;;;;;;;42.17;24.00;;;8.10;99.90;;;;;;5093470;28;20123;-70
2021/05/20 01:33:38;;;;;;;39.72;24.17;;;8.00;99.90;;;;;;5094450;28;20024;-70
2021/05/20 01:36:04;;;;;;;43.63;24.77;;;8.00;99.90;;;;;;5093918;28;20032;-70
2021/05/20 01:38:45;;;;;;;36.58;22.85;;;8.10;99.90;;;;;;5092598;28;20035;-70
2021/05/20 01:41:12;;;;;;;39.05;23.20;;;8.10;99.90;;;;;;5094128;28;20089;-70
2021/05/20 01:43:40;;;;;;;35.25;22.15;;;8.00;99.90;;;;;;5094325;28;20016;-70
2021/05/20 01:46:06;;;;;;;39.53;23.20;;;7.90;99.90;;;;;;5094287;28;20487;-70
2021/05/20 01:48:42;;;;;;;35.83;22.60;;;7.80;99.90;;;;;;5092408;28;20118;-70
2021/05/20 01:51:11;;;;;;;38.60;22.73;;;7.70;99.90;;;;;;5093943;28;20066;-70
2021/05/20 01:53:39;;;;;;;37.42;22.17;;;7.60;99.90;;;;;;5093910;28;20058;-70
2021/05/20 01:56:05;;;;;;;35.80;22.75;;;7.50;99.90;;;;;;5094181;28;20021;-70
2021/05/20 01:58:32;;;;;;;36.40;23.73;;;7.40;99.90;;;;;;5093544;28;20544;-70
2021/05/20 02:00:57;;;;;;;38.03;22.75;;;7.30;99.90;;;;;;5093927;28;20051;-70
2021/05/20 02:03:24;;;;;;;36.92;21.75;;;7.30;99.90;;;;;;5093386;28;20061;-70
2021/05/20 02:05:49;;;;;;;38.00;23.40;;;7.30;99.90;;;;;;5093403;28;20020;-70
2021/05/20 02:08:15;;;;;;;50.42;28.80;;;7.20;99.90;;;;;;5093509;28;20043;-70
2021/05/20 02:10:41;;;;;;;44.50;26.50;;;7.20;99.90;;;;;;5093342;28;20080;-70
2021/05/20 02:13:06;;;;;;;44.13;26.63;;;7.30;99.90;;;;;;5093831;28;20446;-70
2021/05/20 02:15:33;;;;;;;46.85;27.50;;;7.20;99.90;;;;;;5093515;28;20491;-70
2021/05/20 02:17:58;;;;;;;50.40;28.52;;;7.30;99.90;;;;;;5092530;28;20030;-69
2021/05/20 02:20:24;;;;;;;50.03;29.75;;;7.40;99.90;;;;;;5093488;28;20028;-69
2021/05/20 02:22:50;;;;;;;53.38;31.05;;;7.30;99.90;;;;;;5093454;28;20031;-70
2021/05/20 02:25:17;;;;;;;51.90;31.23;;;7.30;99.90;;;;;;5093712;28;20034;-70
2021/05/20 02:27:43;;;;;;;56.22;30.95;;;7.30;99.90;;;;;;5092906;28;20205;-70
2021/05/20 02:30:09;;;;;;;52.03;31.13;;;7.30;99.90;;;;;;5093701;28;20031;-70
2021/05/20 02:32:35;;;;;;;47.72;29.52;;;7.30;99.90;;;;;;5075555;28;20024;-70
2021/05/20 02:35:02;;;;;;;51.30;32.20;;;7.20;99.90;;;;;;5093654;28;20027;-70
2021/05/20 02:37:27;;;;;;;55.80;33.30;;;7.10;99.90;;;;;;5093638;28;20051;-70
2021/05/20 02:39:53;;;;;;;53.22;32.22;;;7.00;99.90;;;;;;5092476;28;20075;-70
2021/05/20 02:42:18;;;;;;;51.92;32.25;;;6.90;99.90;;;;;;5093533;28;20031;-70
2021/05/20 02:44:44;;;;;;;54.80;33.47;;;6.90;99.90;;;;;;5093580;28;20048;-70
2021/05/20 02:47:09;;;;;;;50.17;31.10;;;6.80;99.90;;;;;;5092190;28;20378;-69
2021/05/20 02:49:35;;;;;;;56.53;33.05;;;6.80;99.90;;;;;;5093276;28;20076;-70
2021/05/20 02:52:01;;;;;;;48.63;30.90;;;6.70;99.90;;;;;;5093739;28;20055;-70
2021/05/20 02:54:26;;;;;;;55.10;33.47;;;6.70;99.90;;;;;;5093393;28;20024;-69
2021/05/20 02:56:52;;;;;;;50.08;31.77;;;6.60;99.90;;;;;;5075526;28;20028;-70
2021/05/20 02:59:17;;;;;;;54.92;32.55;;;6.60;99.90;;;;;;5093401;28;20028;-70
2021/05/20 03:01:45;;;;;;;50.05;30.98;;;6.50;99.90;;;;;;5093082;28;20035;-70
2021/05/20 03:04:11;;;;;;;48.90;29.50;;;6.50;99.90;;;;;;5093097;28;20532;-69
2021/05/20 03:06:39;;;;;;;52.80;29.85;;;6.50;99.90;;;;;;5093220;28;20197;-70
2021/05/20 03:09:08;;;;;;;56.03;33.97;;;6.40;99.90;;;;;;5093290;28;20044;-69
2021/05/20 03:11:33;;;;;;;55.40;32.13;;;6.40;99.90;;;;;;5093229;28;20496;-70
2021/05/20 03:13:59;;;;;;;53.97;31.55;;;6.40;99.90;;;;;;5094769;28;20020;-70
2021/05/20 03:16:25;;;;;;;48.25;29.40;;;6.40;99.90;;;;;;5096813;28;20024;-70
2021/05/20 03:18:51;;;;;;;52.03;31.25;;;6.30;99.90;;;;;;5096831;28;20103;-70
2021/05/20 03:21:17;;;;;;;57.30;31.45;;;6.30;99.90;;;;;;5095213;28;20376;-69
2021/05/20 03:23:43;;;;;;;61.08;35.65;;;6.30;99.90;;;;;;5095290;28;20016;-70
2021/05/20 03:26:09;;;;;;;63.10;36.40;;;6.30;99.90;;;;;;5096688;28;20085;-70
2021/05/20 03:28:34;;;;;;;59.78;35.25;;;6.20;99.90;;;;;;5094995;28;20123;-70
2021/05/20 03:31:00;;;;;;;64.88;37.88;;;6.30;99.90;;;;;;5096804;28;20055;-70
2021/05/20 03:33:26;;;;;;;61.20;36.47;;;6.30;99.90;;;;;;5096809;28;20024;-70
2021/05/20 03:35:52;;;;;;;78.13;42.50;;;6.30;99.90;;;;;;5095627;28;20457;-70
2021/05/20 03:38:17;;;;;;;78.35;42.72;;;6.30;99.90;;;;;;5096773;28;20032;-70
2021/05/20 03:40:43;;;;;;;84.30;44.15;;;6.30;99.90;;;;;;5095245;28;20508;-70
2021/05/20 03:43:08;;;;;;;97.97;49.45;;;6.40;99.90;;;;;;5095372;28;20484;-70
2021/05/20 03:45:34;;;;;;;95.80;50.13;;;6.50;99.90;;;;;;5096454;28;20032;-70
2021/05/20 03:47:59;;;;;;;105.43;53.35;;;6.60;99.90;;;;;;5096353;28;20032;-69
2021/05/20 03:50:25;;;;;;;127.88;60.90;;;6.70;99.90;;;;;;5096187;28;20107;-70
2021/05/20 03:52:50;;;;;;;157.48;65.45;;;7.00;99.90;;;;;;5078216;28;20028;-70
2021/05/20 03:55:16;;;;;;;202.10;72.40;;;7.20;99.90;;;;;;5096241;28;20027;-70
2021/05/20 03:57:42;;;;;;;203.75;70.47;;;7.30;99.90;;;;;;5096036;28;20082;-70
2021/05/20 04:00:08;;;;;;;264.30;73.80;;;7.50;99.90;;;;;;5094856;28;20032;-70
2021/05/20 04:02:33;;;;;;;280.98;76.07;;;7.60;99.90;;;;;;5096155;28;20024;-69
2021/05/20 04:04:59;;;;;;;343.67;78.25;;;7.70;99.90;;;;;;5095812;28;20035;-70
2021/05/20 04:07:25;;;;;;;335.50;75.95;;;7.80;99.90;;;;;;5095993;28;20024;-70
2021/05/20 04:09:50;;;;;;;326.50;77.60;;;8.00;99.90;;;;;;5095826;28;20027;-69
2021/05/20 04:12:16;;;;;;;304.02;73.15;;;8.00;99.90;;;;;;5095943;28;20020;-70
2021/05/20 04:14:41;;;;;;;367.85;76.43;;;8.10;99.90;;;;;;5095951;28;20044;-70
2021/05/20 04:17:07;;;;;;;398.42;76.18;;;8.10;99.90;;;;;;5095400;28;20054;-70
2021/05/20 04:19:33;;;;;;;413.95;80.53;;;8.10;99.90;;;;;;5095416;28;20481;-70
2021/05/20 04:21:58;;;;;;;327.85;76.55;;;8.20;99.90;;;;;;5095830;28;20036;-69
2021/05/20 04:24:26;;;;;;;297.55;76.03;;;8.20;99.90;;;;;;5095129;28;20020;-70
2021/05/20 04:26:52;;;;;;;372.27;78.72;;;8.30;99.90;;;;;;5094207;28;20462;-69
2021/05/20 04:29:20;;;;;;;488.45;85.15;;;8.30;99.90;;;;;;5095747;28;20027;-69
2021/05/20 04:31:46;;;;;;;356.15;78.32;;;8.30;99.90;;;;;;5095628;28;20020;-70
2021/05/20 04:34:12;;;;;;;293.27;74.65;;;8.40;99.90;;;;;;5095664;28;20292;-70
2021/05/20 04:36:37;;;;;;;334.80;76.75;;;8.40;99.90;;;;;;5095227;28;20101;-70
2021/05/20 04:39:03;;;;;;;279.58;73.18;;;8.40;99.90;;;;;;5094977;28;20032;-70
2021/05/20 04:41:31;;;;;;;261.45;74.05;;;8.50;99.90;;;;;;5095667;28;20024;-70
2021/05/20 04:43:57;;;;;;;298.45;77.72;;;8.40;99.90;;;;;;5093647;28;20016;-70
2021/05/20 04:46:22;;;;;;;237.50;71.97;;;8.50;99.90;;;;;;5095030;28;20024;-70
2021/05/20 04:48:48;;;;;;;242.55;72.90;;;8.50;99.90;;;;;;5095257;28;20028;-69
2021/05/20 04:51:15;;;;;;;255.73;78.18;;;8.50;99.90;;;;;;5095160;28;20519;-70
2021/05/20 04:53:41;;;;;;;213.13;67.72;;;8.50;99.90;;;;;;5095041;28;20374;-70
2021/05/20 04:56:06;;;;;;;214.20;66.95;;;8.50;99.90;;;;;;5094841;28;20377;-70
2021/05/20 04:58:32;;;;;;;239.63;72.53;;;8.60;99.90;;;;;;5093627;28;20111;-70
2021/05/20 05:00:57;;;;;;;204.68;66.53;;;8.60;99.90;;;;;;5095056;28;20107;-70
2021/05/20 05:03:23;;;;;;;214.10;70.30;;;8.70;99.90;;;;;;5095035;28;20032;-70
2021/05/20 05:05:48;;;;;;;191.95;65.68;;;8.70;99.90;;;;;;5093078;28;20028;-70
2021/05/20 05:08:14;;;;;;;208.80;72.10;;;8.80;99.90;;;;;;5093331;28;20024;-70
2021/05/20 05:10:39;;;;;;;184.77;65.82;;;8.80;99.90;;;;;;5094872;28;20085;-70
2021/05/20 05:13:05;;;;;;;181.73;68.00;;;8.90;99.90;;;;;;5094798;28;20016;-70
2021/05/20 05:15:30;;;;;;;178.50;66.97;;;9.00;99.90;;;;;;5093608;28;20111;-70
2021/05/20 05:17:56;;;;;;;158.65;63.15;;;8.90;99.90;;;;;;5094188;28;20103;-70
2021/05/20 05:20:22;;;;;;;173.57;65.13;;;9.00;99.90;;;;;;5094733;28;20411;-70
2021/05/20 05:22:47;;;;;;;161.00;62.83;;;9.10;99.90;;;;;;5094695;28;20020;-70
2021/05/20 05:25:13;;;;;;;147.00;59.80;;;9.10;99.90;;;;;;5094610;28;20039;-70
2021/05/20 05:27:39;;;;;;;150.48;60.33;;;9.20;99.90;;;;;;5094116;28;20047;-70
2021/05/20 05:30:05;;;;;;;142.38;58.58;;;9.20;99.90;;;;;;5094520;28;20099;-70
2021/05/20 05:32:31;;;;;;;127.55;56.80;;;9.40;99.90;;;;;;5094507;28;20047;-69
2021/05/20 05:34:56;;;;;;;121.72;52.58;;;9.40;99.90;;;;;;5093217;28;20052;-70
2021/05/20 05:37:22;;;;;;;129.50;57.60;;;9.50;99.90;;;;;;5093567;28;20035;-70
2021/05/20 05:39:47;;;;;;;117.53;53.33;;;9.50;99.90;;;;;;5076071;28;20024;-69
2021/05/20 05:42:13;;;;;;;106.55;52.00;;;9.60;99.90;;;;;;5093047;28;20080;-70
2021/05/20 05:44:39;;;;;;;109.43;51.97;;;9.70;99.90;;;;;;5094261;28;20451;-70
2021/05/20 05:47:06;;;;;;;108.55;49.70;;;9.80;99.90;;;;;;5094032;28;20024;-70
2021/05/20 05:49:37;;;;;;;94.40;48.65;;;9.80;99.90;;;;;;5093596;28;20012;-70
2021/05/20 05:52:06;;;;;;;91.30;45.90;;;9.90;99.90;;;;;;5093550;28;20024;-69
2021/05/20 05:54:32;;;;;;;87.10;45.72;;;9.90;99.90;;;;;;5092737;28;20023;-70
2021/05/20 05:56:57;;;;;;;87.93;45.72;;;10.00;99.90;;;;;;5093951;28;20032;-70
2021/05/20 05:59:23;;;;;;;77.63;42.50;;;10.20;99.90;;;;;;5093784;28;20035;-70
2021/05/20 06:01:48;;;;;;;89.85;45.03;;;10.50;99.90;;;;;;5093491;28;20024;-70
2021/05/20 06:04:15;;;;;;;85.35;46.05;;;10.40;99.90;;;;;;5093491;28;20063;-70
2021/05/20 06:06:43;;;;;;;85.50;43.50;;;10.50;99.90;;;;;;5093511;28;20035;-71
2021/05/20 06:09:10;;;;;;;74.63;40.95;;;10.70;99.90;;;;;;5091506;28;20528;-70
2021/05/20 06:11:36;;;;;;;88.97;47.20;;;10.80;99.90;;;;;;5091921;28;20056;-69
2021/05/20 06:14:05;;;;;;;69.20;38.47;;;10.80;99.90;;;;;;5092366;28;20028;-69
2021/05/20 06:16:30;;;;;;;72.20;39.65;;;10.80;99.90;;;;;;5091972;28;20107;-69
2021/05/20 06:18:56;;;;;;;64.05;35.90;;;11.10;99.90;;;;;;5105160;28;20111;-69
2021/05/20 06:21:22;;;;;;;63.90;36.22;;;11.50;99.90;;;;;;5111751;28;20028;-70
2021/05/20 06:23:48;;;;;;;67.65;38.10;;;11.70;99.90;;;;;;5113788;28;20047;-69
2021/05/20 06:26:15;;;;;;;67.50;38.67;;;12.10;99.90;;;;;;5114065;28;20019;-69
2021/05/20 06:28:41;;;;;;;72.22;40.95;;;12.40;99.90;;;;;;5113492;28;20067;-70
2021/05/20 06:31:07;;;;;;;74.57;40.00;;;12.70;99.90;;;;;;5114050;28;20015;-70
2021/05/20 06:33:32;;;;;;;81.80;43.80;;;12.70;99.90;;;;;;5113710;28;20027;-70
2021/05/20 06:35:58;;;;;;;75.95;43.08;;;12.80;99.90;;;;;;5114092;28;20476;-69
2021/05/20 06:38:23;;;;;;;74.95;42.58;;;12.70;99.90;;;;;;5099195;28;20035;-70
2021/05/20 06:40:49;;;;;;;72.05;41.88;;;13.40;99.90;;;;;;5086366;28;20035;-67
2021/05/20 06:43:14;;;;;;;69.25;38.95;;;14.40;99.90;;;;;;5090716;28;20032;-67
2021/05/20 06:45:40;;;;;;;61.03;37.88;;;15.40;99.90;;;;;;5091535;28;20032;-68
2021/05/20 06:48:06;;;;;;;55.33;35.65;;;16.10;99.90;;;;;;5091423;28;20028;-69
2021/05/20 06:50:31;;;;;;;54.63;34.80;;;16.20;99.90;;;;;;5096131;28;20028;-68
2021/05/20 06:52:58;;;;;;;65.72;38.53;;;15.10;99.90;;;;;;5096967;28;20031;-69
2021/05/20 06:55:23;;;;;;;73.18;41.35;;;14.60;99.90;;;;;;5096668;28;20046;-68
2021/05/20 07:00:37;;;;;;;64.53;39.33;;;13.50;99.90;;;;;;5095933;28;20024;-71
2021/05/20 07:03:04;;;;;;;69.03;40.13;;;13.30;99.90;;;;;;5096319;28;20093;-71
2021/05/20 07:05:30;;;;;;;62.33;37.70;;;13.40;99.90;;;;;;5095453;28;20552;-69
2021/05/20 07:07:57;;;;;;;66.25;36.97;;;14.40;99.90;;;;;;5095402;28;20081;-69
2021/05/20 07:10:23;;;;;;;63.95;37.60;;;15.30;99.90;;;;;;5094652;28;20060;-71
2021/05/20 07:12:49;;;;;;;61.10;37.70;;;15.50;99.90;;;;;;5096583;28;20020;-71
2021/05/20 07:15:15;;;;;;;57.40;36.22;;;15.30;99.90;;;;;;5096105;28;20039;-69
2021/05/20 07:17:40;;;;;;;60.25;35.30;;;15.40;99.90;;;;;;5096818;28;20023;-69
2021/05/20 07:20:08;;;;;;;60.70;36.20;;;14.70;99.90;;;;;;5096538;28;20031;-69
2021/05/20 07:22:34;;;;;;;60.22;35.80;;;14.90;99.90;;;;;;5096769;28;20034;-69
2021/05/20 07:25:02;;;;;;;61.78;35.63;;;15.70;99.90;;;;;;5096855;28;20114;-69
2021/05/20 07:27:28;;;;;;;63.75;38.25;;;15.50;99.90;;;;;;5095978;28;20089;-71
2021/05/20 07:29:54;;;;;;;65.00;38.40;;;15.00;99.90;;;;;;5095743;28;20027;-70
2021/05/20 07:32:20;;;;;;;57.58;35.22;;;14.70;99.90;;;;;;5095076;28;20036;-71
2021/05/20 07:34:46;;;;;;;55.17;31.77;;;14.60;99.90;;;;;;5093851;28;20016;-71
2021/05/20 07:37:12;;;;;;;58.35;33.72;;;15.40;99.90;;;;;;5095147;28;20534;-71
2021/05/20 07:39:37;;;;;;;51.63;32.40;;;16.30;99.90;;;;;;5095956;28;20036;-71
2021/05/20 07:42:04;;;;;;;54.42;35.47;;;16.70;99.90;;;;;;5108740;28;20054;-69
2021/05/20 07:44:29;;;;;;;47.50;30.42;;;17.30;99.90;;;;;;5101952;28;20035;-71
2021/05/20 07:46:56;;;;;;;46.58;29.80;;;17.60;99.90;;;;;;5095163;28;20107;-71
2021/05/20 07:49:24;;;;;;;38.85;24.70;;;18.30;99.90;;;;;;5095711;28;20020;-71
2021/05/20 07:51:49;;;;;;;43.83;29.48;;;18.40;99.90;;;;;;5095444;28;20074;-71
2021/05/20 07:54:15;;;;;;;41.78;29.55;;;18.80;99.90;;;;;;5095343;28;20389;-71
2021/05/20 07:56:43;;;;;;;43.78;26.98;;;17.60;99.90;;;;;;5095709;28;20028;-71
2021/05/20 07:59:08;;;;;;;41.05;28.60;;;17.20;99.90;;;;;;5094854;28;21313;-71
2021/05/20 08:01:35;;;;;;;46.42;30.33;;;16.70;99.90;;;;;;5094511;28;20496;-71
2021/05/20 08:04:09;;;;;;;43.33;31.55;;;17.00;99.90;;;;;;5094291;28;20024;-71
2021/05/20 08:06:42;;;;;;;46.50;31.00;;;18.10;99.90;;;;;;5094893;28;20020;-72
2021/05/20 08:09:46;;;;;;;51.85;31.23;;;17.30;99.90;;;;;;5095732;28;20023;-71
2021/05/20 08:11:53;;;;;;;44.42;29.27;;;16.30;99.90;;;;;;5093783;28;20089;-71
2021/05/20 08:14:18;;;;;;;50.05;32.55;;;16.50;99.90;;;;;;5095483;28;20469;-71
2021/05/20 08:16:44;;;;;;;54.10;34.35;;;16.00;99.90;;;;;;5095614;28;20028;-71
2021/05/20 08:19:09;;;;;;;55.80;32.92;;;15.50;99.90;;;;;;5094840;28;20024;-71
2021/05/20 08:21:36;;;;;;;52.78;34.03;;;15.40;99.90;;;;;;5094700;28;20394;-71
2021/05/20 08:24:02;;;;;;;46.03;29.85;;;15.90;99.90;;;;;;5093865;28;20105;-71
2021/05/20 08:26:28;;;;;;;50.38;31.10;;;16.20;99.90;;;;;;5094060;28;20060;-71
2021/05/20 08:28:54;;;;;;;50.30;32.22;;;16.20;99.90;;;;;;5093282;28;20031;-71
2021/05/20 08:31:19;;;;;;;56.00;35.08;;;17.20;99.90;;;;;;5093517;28;20110;-71
2021/05/20 08:33:45;;;;;;;55.08;32.65;;;17.00;99.90;;;;;;5092336;28;20095;-71
2021/05/20 08:36:11;;;;;;;55.65;33.72;;;16.60;99.90;;;;;;5095638;28;20024;-71
2021/05/20 08:38:37;;;;;;;55.25;35.67;;;15.90;99.90;;;;;;5094783;28;20028;-71
2021/05/20 08:41:02;;;;;;;53.50;35.08;;;15.60;99.90;;;;;;5093438;28;20024;-71
2021/05/20 08:43:28;;;;;;;52.03;33.28;;;16.00;99.90;;;;;;5094241;28;20028;-71
2021/05/20 08:45:54;;;;;;;51.50;32.55;;;16.90;99.90;;;;;;5093470;28;20059;-71
2021/05/20 08:48:19;;;;;;;49.20;31.60;;;17.80;99.90;;;;;;5094313;28;20039;-66
2021/05/20 08:50:45;;;;;;;45.90;30.77;;;18.90;99.90;;;;;;5094710;28;20020;-67
2021/05/20 08:53:12;;;;;;;46.33;29.27;;;19.00;99.90;;;;;;5094617;28;20457;-67
2021/05/20 08:55:39;;;;;;;46.65;30.13;;;19.20;99.90;;;;;;5094291;28;20031;-68
2021/05/20 08:58:08;;;;;;;47.85;30.83;;;18.20;99.90;;;;;;5094489;28;20031;-66
2021/05/20 09:00:44;;;;;;;55.72;31.92;;;17.10;99.90;;;;;;5094471;28;20028;-70
2021/05/20 09:03:12;;;;;;;47.17;29.17;;;16.70;99.90;;;;;;5093763;28;20031;-70
2021/05/20 09:05:40;;;;;;;45.10;28.27;;;17.80;99.90;;;;;;5097474;28;20032;-70
2021/05/20 09:08:11;;;;;;;45.03;27.02;;;18.30;99.90;;;;;;5072800;28;20028;-70
2021/05/20 09:10:40;;;;;;;41.55;24.55;;;19.30;99.90;;;;;;5081149;28;20469;-70
2021/05/20 09:13:13;;;;;;;33.67;22.73;;;19.40;99.90;;;;;;5091825;28;20020;-70
2021/05/20 09:15:54;;;;;;;39.35;25.75;;;18.60;99.90;;;;;;5092281;28;20024;-70
2021/05/20 09:18:24;;;;;;;42.45;26.23;;;17.90;99.90;;;;;;5093091;28;20040;-69
2021/05/20 09:20:52;;;;;;;42.30;26.48;;;18.10;99.90;;;;;;5094362;28;20085;-70
2021/05/20 09:23:22;;;;;;;51.60;26.75;;;18.00;99.90;;;;;;5094015;28;20031;-69
2021/05/20 09:25:50;;;;;;;36.10;22.38;;;18.40;99.90;;;;;;5076234;28;20059;-69
2021/05/20 09:28:31;;;;;;;39.95;24.08;;;18.80;99.90;;;;;;5093762;28;20454;-69
2021/05/20 09:30:57;;;;;;;31.17;20.15;;;19.70;99.90;;;;;;5091577;28;20377;-69
2021/05/20 09:33:22;;;;;;;32.75;20.48;;;20.30;99.90;;;;;;5091875;28;20099;-69
2021/05/20 09:35:49;;;;;;;33.67;22.05;;;19.80;99.90;;;;;;5092470;28;20028;-69
2021/05/20 09:38:20;;;;;;;34.60;19.75;;;20.40;99.90;;;;;;5092054;28;20016;-69
2021/05/20 09:40:55;;;;;;;33.20;21.33;;;20.70;99.90;;;;;;5089798;28;20037;-69
2021/05/20 09:43:24;;;;;;;37.47;22.15;;;21.10;99.90;;;;;;5092998;28;20049;-69
2021/05/20 09:45:53;;;;;;;34.67;23.25;;;20.90;99.90;;;;;;5092448;28;20020;-70
2021/05/20 09:48:21;;;;;;;34.58;23.08;;;20.30;99.90;;;;;;5091439;28;20071;-69
2021/05/20 09:50:50;;;;;;;37.67;23.00;;;19.90;99.90;;;;;;5092110;28;20122;-70
2021/05/20 09:53:18;;;;;;;32.15;20.25;;;18.90;99.90;;;;;;5092040;28;20070;-72
2021/05/20 09:55:47;;;;;;;26.13;18.02;;;19.60;99.90;;;;;;5091421;28;20061;-72
2021/05/20 09:58:14;;;;;;;30.95;20.67;;;20.20;99.90;;;;;;5092012;28;20051;-71
2021/05/20 10:00:40;;;;;;;29.10;21.25;;;21.00;99.90;;;;;;5092541;28;20374;-72
2021/05/20 10:03:09;;;;;;;30.75;22.23;;;20.60;99.90;;;;;;5091842;28;20019;-72
2021/05/20 10:05:37;;;;;;;37.50;23.95;;;21.00;99.90;;;;;;5092769;28;20501;-70
2021/05/20 10:08:07;;;;;;;33.08;21.02;;;20.10;99.90;;;;;;5092660;28;20474;-71
2021/05/20 10:10:37;;;;;;;20.55;13.57;;;19.40;99.90;;;;;;5074426;28;20024;-71
2021/05/20 10:13:06;;;;;;;28.38;19.58;;;19.80;99.90;;;;;;5093026;28;20020;-71
2021/05/20 10:15:32;;;;;;;33.65;22.48;;;20.10;99.90;;;;;;5091752;28;20016;-71
2021/05/20 10:18:03;;;;;;;23.73;14.95;;;20.50;99.90;;;;;;5075257;28;20027;-69
2021/05/20 10:20:28;;;;;;;21.13;14.68;;;21.40;99.90;;;;;;5093036;28;20020;-70
2021/05/20 10:22:54;;;;;;;18.05;11.07;;;21.00;99.90;;;;;;5092780;28;20052;-71
2021/05/20 10:25:20;;;;;;;17.33;10.35;;;21.60;99.90;;;;;;5092784;28;20039;-71
2021/05/20 10:27:46;;;;;;;15.98;11.85;;;22.00;96.90;;;;;;5093070;28;20048;-71
2021/05/20 10:30:14;;;;;;;16.35;12.10;;;21.30;97.10;;;;;;5093006;28;20024;-71
2021/05/20 10:32:43;;;;;;;30.80;20.58;;;20.90;97.10;;;;;;5076807;28;20020;-71
2021/05/20 10:35:13;;;;;;;31.85;20.58;;;21.20;99.90;;;;;;5085364;28;20081;-70
2021/05/20 10:37:40;;;;;;;31.38;20.35;;;21.10;99.90;;;;;;5089399;28;20110;-71
2021/05/20 10:40:09;;;;;;;29.70;19.10;;;20.00;99.90;;;;;;5093208;28;20035;-71
2021/05/20 10:42:41;;;;;;;32.80;20.88;;;19.90;99.90;;;;;;5092677;28;20111;-71
2021/05/20 10:45:17;;;;;;;32.67;21.02;;;19.30;99.90;;;;;;5092973;28;20069;-71
2021/05/20 10:48:07;;;;;;;28.27;19.65;;;19.00;99.90;;;;;;5092179;28;20089;-71
2021/05/20 10:50:54;;;;;;;29.77;19.60;;;18.50;99.90;;;;;;5093136;28;20465;-71
2021/05/20 10:56:41;;;;;;;29.15;19.63;;;18.90;99.90;;;;;;5111178;27;20400;-71
2021/05/20 10:59:30;;;;;;;33.58;20.17;;;19.10;99.90;;;;;;5111035;28;20016;-71
2021/05/20 11:01:56;;;;;;;23.38;15.60;;;19.40;99.90;;;;;;5110720;28;20026;-71
2021/05/20 11:04:40;;;;;;;26.63;17.42;;;19.20;99.90;;;;;;5109417;28;20027;-69
2021/05/20 11:07:06;;;;;;;29.50;19.15;;;19.20;99.90;;;;;;5111009;28;20019;-71
2021/05/20 11:09:42;;;;;;;31.27;18.88;;;19.20;99.90;;;;;;5108591;28;20030;-71
2021/05/20 11:12:08;;;;;;;28.35;18.85;;;19.20;99.90;;;;;;5107800;28;20016;-68
2021/05/20 11:14:35;;;;;;;24.73;16.58;;;19.20;99.90;;;;;;5108534;28;20044;-71
2021/05/20 11:17:21;;;;;;;26.27;17.33;;;19.70;99.90;;;;;;5110039;28;20469;-71
2021/05/20 11:19:47;;;;;;;24.00;16.55;;;19.10;99.90;;;;;;5109645;28;20063;-70
2021/05/20 11:22:12;;;;;;;24.50;16.77;;;19.40;99.90;;;;;;5110375;28;20050;-68
2021/05/20 11:24:41;;;;;;;20.35;16.23;;;19.00;99.90;;;;;;5109333;28;20086;-71
2021/05/20 11:27:24;;;;;;;22.25;15.63;;;18.90;99.90;;;;;;5109911;28;20028;-71
2021/05/20 11:29:50;;;;;;;19.10;13.60;;;19.20;99.90;;;;;;5109848;28;20020;-70
2021/05/20 11:32:28;;;;;;;15.80;13.25;;;19.10;99.90;;;;;;5110201;28;20084;-70
2021/05/20 11:37:37;;;;;;;18.30;12.88;;;19.60;99.90;;;;;;5110688;27;20351;-70
2021/05/20 11:40:05;;;;;;;14.98;12.10;;;19.40;99.90;;;;;;5110238;28;20035;-70
2021/05/20 11:42:32;;;;;;;18.05;12.45;;;18.80;99.90;;;;;;5108868;28;20461;-70
2021/05/20 11:45:00;;;;;;;22.42;15.52;;;18.50;99.90;;;;;;5109933;28;20016;-71
2021/05/20 11:47:26;;;;;;;17.48;11.30;;;18.80;99.90;;;;;;5108927;28;20431;-71
2021/05/20 11:49:52;;;;;;;18.73;13.18;;;18.80;99.90;;;;;;5108517;28;20035;-70
2021/05/20 11:52:18;;;;;;;18.38;13.70;;;18.10;99.90;;;;;;5109594;28;20027;-70
2021/05/20 11:54:49;;;;;;;20.80;13.93;;;17.70;99.90;;;;;;5106856;28;20032;-70
2021/05/20 11:57:17;;;;;;;19.88;12.98;;;17.60;99.90;;;;;;5107760;28;20426;-70
2021/05/20 11:59:46;;;;;;;18.58;13.35;;;17.60;99.90;;;;;;5109434;28;20024;-70
2021/05/20 12:02:14;;;;;;;21.55;13.43;;;17.60;99.90;;;;;;5109911;28;20481;-70
2021/05/20 12:04:41;;;;;;;19.90;12.82;;;17.30;99.90;;;;;;5109870;28;20110;-70
2021/05/20 12:07:16;;;;;;;17.58;12.20;;;17.80;99.90;;;;;;5109910;28;20425;-70
2021/05/20 12:09:41;;;;;;;15.30;10.52;;;18.50;99.90;;;;;;5110686;28;20438;-70
2021/05/20 12:12:10;;;;;;;13.32;8.55;;;19.20;99.90;;;;;;5110062;28;20059;-70
2021/05/20 12:14:36;;;;;;;14.32;9.07;;;19.40;99.90;;;;;;5110292;28;20489;-70
2021/05/20 12:17:12;;;;;;;15.52;10.55;;;19.60;99.90;;;;;;5109550;28;20111;-70
2021/05/20 12:19:48;;;;;;;19.05;11.40;;;19.10;99.90;;;;;;5108766;28;20397;-70
2021/05/20 12:22:17;;;;;;;13.80;9.85;;;18.40;99.90;;;;;;5107401;28;20107;-70
2021/05/20 12:24:47;;;;;;;15.23;10.57;;;18.30;99.90;;;;;;5109517;28;20020;-70
2021/05/20 12:27:17;;;;;;;16.77;11.27;;;18.90;99.90;;;;;;5107536;28;20099;-70
2021/05/20 12:29:45;;;;;;;13.00;7.20;;;19.10;99.90;;;;;;5105590;28;20034;-70
2021/05/20 12:32:38;;;;;;;11.32;7.72;;;18.90;99.90;;;;;;5107936;28;20032;-70
2021/05/20 12:37:59;;;;;;;9.70;6.47;;;19.10;99.90;;;;;;5110026;27;20936;-70
2021/05/20 12:40:45;;;;;;;12.98;9.55;;;18.30;99.90;;;;;;5110481;28;20469;-70
2021/05/20 12:45:58;;;;;;;15.05;9.23;;;18.50;99.90;;;;;;5111441;27;20416;-69